sensor_id;sensor_type;location;lat;lon;timestamp;temperature;humidity
47540;DHT22;33280;52.152;21.052;2023-06-22T00:00:03;20.50;99.90
47540;DHT22;33280;52.152;21.052;2023-06-22T00:02:36;20.50;99.90
47540;DHT22;33280;52.152;21.052;2023-06-22T00:05:03;20.40;99.90
47540;DHT22;33280;52.152;21.052;2023-06-22T00:07:30;20.40;99.90
47540;DHT22;33280;52.152;21.052;2023-06-22T00:09:57;20.40;99.90
47540;DHT22;33280;52.152;21.052;2023-06-22T00:12:24;20.30;99.90
47540;DHT22;33280;52.152;21.052;2023-06-22T00:14:51;20.30;99.90
47540;DHT22;33280;52.152;21.052;2023-06-22T00:17:18;20.30;99.90
47540;DHT22;33280;52.152;21.052;2023-06-22T00:19:47;20.30;99.90
47540;DHT22;33280;52.152;21.052;2023-06-22T00:22:14;20.30;99.90
47540;DHT22;33280;52.152;21.052;2023-06-22T00:24:41;20.30;99.90
47540;DHT22;33280;52.152;21.052;2023-06-22T00:27:08;20.30;99.90
47540;DHT22;33280;52.152;21.052;2023-06-22T00:29:35;20.30;99.90
47540;DHT22;33280;52.152;21.052;2023-06-22T00:32:02;20.30;99.90
47540;DHT22;33280;52.152;21.052;2023-06-22T00:34:30;20.30;99.90
47540;DHT22;33280;52.152;21.052;2023-06-22T00:36:57;20.30;99.90
47540;DHT22;33280;52.152;21.052;2023-06-22T00:39:24;20.20;99.90
47540;DHT22;33280;52.152;21.052;2023-06-22T00:41:51;20.20;99.90
47540;DHT22;33280;52.152;21.052;2023-06-22T00:44:18;20.20;99.90
47540;DHT22;33280;52.152;21.052;2023-06-22T00:46:45;20.20;99.90
47540;DHT22;33280;52.152;21.052;2023-06-22T00:49:12;20.10;99.90
47540;DHT22;33280;52.152;21.052;2023-06-22T00:51:38;20.10;99.90
47540;DHT22;33280;52.152;21.052;2023-06-22T00:54:06;20.10;99.90
47540;DHT22;33280;52.152;21.052;2023-06-22T00:56:33;20.10;99.90
47540;DHT22;33280;52.152;21.052;2023-06-22T00:59:04;20.10;99.90
47540;DHT22;33280;52.152;21.052;2023-06-22T01:01:31;20.00;99.90
47540;DHT22;33280;52.152;21.052;2023-06-22T01:03:59;20.00;99.90
47540;DHT22;33280;52.152;21.052;2023-06-22T01:06:32;20.00;99.90
47540;DHT22;33280;52.152;21.052;2023-06-22T01:09:35;20.00;99.90
47540;DHT22;33280;52.152;21.052;2023-06-22T01:12:07;19.90;99.90
47540;DHT22;33280;52.152;21.052;2023-06-22T01:14:42;19.90;99.90
47540;DHT22;33280;52.152;21.052;2023-06-22T01:17:11;19.90;99.90
47540;DHT22;33280;52.152;21.052;2023-06-22T01:19:53;19.80;99.90
47540;DHT22;33280;52.152;21.052;2023-06-22T01:22:27;19.80;99.90
47540;DHT22;33280;52.152;21.052;2023-06-22T01:25:24;19.80;99.90
47540;DHT22;33280;52.152;21.052;2023-06-22T01:27:58;19.80;99.90
47540;DHT22;33280;52.152;21.052;2023-06-22T01:30:30;19.80;99.90
47540;DHT22;33280;52.152;21.052;2023-06-22T01:33:00;19.80;99.90
47540;DHT22;33280;52.152;21.052;2023-06-22T01:35:28;19.80;99.90
47540;DHT22;33280;52.152;21.052;2023-06-22T01:37:56;19.80;99.90
47540;DHT22;33280;52.152;21.052;2023-06-22T01:40:23;19.80;99.90
47540;DHT22;33280;52.152;21.052;2023-06-22T01:42:51;19.80;99.90
47540;DHT22;33280;52.152;21.052;2023-06-22T01:45:19;19.80;99.90
47540;DHT22;33280;52.152;21.052;2023-06-22T01:47:47;19.80;99.90
47540;DHT22;33280;52.152;21.052;2023-06-22T01:50:14;19.80;99.90
47540;DHT22;33280;52.152;21.052;2023-06-22T01:52:41;19.80;99.90
47540;DHT22;33280;52.152;21.052;2023-06-22T01:55:08;19.70;99.90
47540;DHT22;33280;52.152;21.052;2023-06-22T01:57:35;19.80;99.90
47540;DHT22;33280;52.152;21.052;2023-06-22T02:00:04;19.80;99.90
47540;DHT22;33280;52.152;21.052;2023-06-22T02:02:38;19.80;99.90
47540;DHT22;33280;52.152;21.052;2023-06-22T02:05:08;19.80;99.90
47540;DHT22;33280;52.152;21.052;2023-06-22T02:07:56;19.80;99.90
47540;DHT22;33280;52.152;21.052;2023-06-22T02:10:27;19.90;99.90
47540;DHT22;33280;52.152;21.052;2023-06-22T02:12:57;19.90;99.90
47540;DHT22;33280;52.152;21.052;2023-06-22T02:15:25;19.90;99.90
47540;DHT22;33280;52.152;21.052;2023-06-22T02:17:52;19.90;99.90
47540;DHT22;33280;52.152;21.052;2023-06-22T02:20:19;19.90;99.90
47540;DHT22;33280;52.152;21.052;2023-06-22T02:22:47;19.90;99.90
47540;DHT22;33280;52.152;21.052;2023-06-22T02:25:14;19.90;99.90
47540;DHT22;33280;52.152;21.052;2023-06-22T02:27:41;19.90;99.90
47540;DHT22;33280;52.152;21.052;2023-06-22T02:30:09;19.80;99.90
47540;DHT22;33280;52.152;21.052;2023-06-22T02:32:36;19.80;99.90
47540;DHT22;33280;52.152;21.052;2023-06-22T02:35:04;19.80;99.90
47540;DHT22;33280;52.152;21.052;2023-06-22T02:37:31;19.70;99.90
47540;DHT22;33280;52.152;21.052;2023-06-22T02:39:58;19.70;99.90
47540;DHT22;33280;52.152;21.052;2023-06-22T02:42:25;19.70;99.90
47540;DHT22;33280;52.152;21.052;2023-06-22T02:44:52;19.80;99.90
47540;DHT22;33280;52.152;21.052;2023-06-22T02:47:19;19.70;99.90
47540;DHT22;33280;52.152;21.052;2023-06-22T02:49:46;19.70;99.90
47540;DHT22;33280;52.152;21.052;2023-06-22T02:52:13;19.80;99.90
47540;DHT22;33280;52.152;21.052;2023-06-22T02:54:40;19.70;99.90
47540;DHT22;33280;52.152;21.052;2023-06-22T02:57:07;19.80;99.90
47540;DHT22;33280;52.152;21.052;2023-06-22T02:59:40;19.80;99.90
47540;DHT22;33280;52.152;21.052;2023-06-22T03:02:09;19.80;99.90
47540;DHT22;33280;52.152;21.052;2023-06-22T03:04:36;19.80;99.90
47540;DHT22;33280;52.152;21.052;2023-06-22T03:07:03;19.90;99.90
47540;DHT22;33280;52.152;21.052;2023-06-22T03:09:32;19.80;99.90
47540;DHT22;33280;52.152;21.052;2023-06-22T03:11:59;19.80;99.90
47540;DHT22;33280;52.152;21.052;2023-06-22T03:14:26;19.80;99.90
47540;DHT22;33280;52.152;21.052;2023-06-22T03:16:53;19.70;99.90
47540;DHT22;33280;52.152;21.052;2023-06-22T03:19:20;19.70;99.90
47540;DHT22;33280;52.152;21.052;2023-06-22T03:21:48;19.70;99.90
47540;DHT22;33280;52.152;21.052;2023-06-22T03:24:15;19.80;99.90
47540;DHT22;33280;52.152;21.052;2023-06-22T03:26:42;19.70;99.90
47540;DHT22;33280;52.152;21.052;2023-06-22T03:29:09;19.70;99.90
47540;DHT22;33280;52.152;21.052;2023-06-22T03:31:36;19.80;99.90
47540;DHT22;33280;52.152;21.052;2023-06-22T03:34:03;19.80;99.90
47540;DHT22;33280;52.152;21.052;2023-06-22T03:36:31;19.90;99.90
47540;DHT22;33280;52.152;21.052;2023-06-22T03:38:58;19.90;99.90
47540;DHT22;33280;52.152;21.052;2023-06-22T03:41:25;19.80;99.90
47540;DHT22;33280;52.152;21.052;2023-06-22T03:43:52;19.70;99.90
47540;DHT22;33280;52.152;21.052;2023-06-22T03:46:19;19.80;99.90
47540;DHT22;33280;52.152;21.052;2023-06-22T03:48:47;19.90;99.90
47540;DHT22;33280;52.152;21.052;2023-06-22T03:51:14;19.90;99.90
47540;DHT22;33280;52.152;21.052;2023-06-22T03:53:41;20.00;99.90
47540;DHT22;33280;52.152;21.052;2023-06-22T03:56:08;20.10;99.90
47540;DHT22;33280;52.152;21.052;2023-06-22T03:58:35;20.20;99.90
47540;DHT22;33280;52.152;21.052;2023-06-22T04:01:03;20.10;99.90
47540;DHT22;33280;52.152;21.052;2023-06-22T04:03:30;20.10;99.90
47540;DHT22;33280;52.152;21.052;2023-06-22T04:05:57;20.10;99.90
47540;DHT22;33280;52.152;21.052;2023-06-22T04:08:24;20.20;99.90
47540;DHT22;33280;52.152;21.052;2023-06-22T04:10:51;20.30;99.90
47540;DHT22;33280;52.152;21.052;2023-06-22T04:13:18;20.30;99.90
47540;DHT22;33280;52.152;21.052;2023-06-22T04:15:45;20.30;99.90
47540;DHT22;33280;52.152;21.052;2023-06-22T04:18:12;20.20;99.90
47540;DHT22;33280;52.152;21.052;2023-06-22T04:20:40;20.30;99.90
47540;DHT22;33280;52.152;21.052;2023-06-22T04:23:07;20.40;99.90
47540;DHT22;33280;52.152;21.052;2023-06-22T04:25:34;20.40;99.90
47540;DHT22;33280;52.152;21.052;2023-06-22T04:28:01;20.50;99.90
47540;DHT22;33280;52.152;21.052;2023-06-22T04:30:30;20.30;99.90
47540;DHT22;33280;52.152;21.052;2023-06-22T04:32:58;20.40;99.90
47540;DHT22;33280;52.152;21.052;2023-06-22T04:35:26;20.50;99.90
47540;DHT22;33280;52.152;21.052;2023-06-22T04:37:58;20.50;99.90
47540;DHT22;33280;52.152;21.052;2023-06-22T04:40:25;20.60;99.90
47540;DHT22;33280;52.152;21.052;2023-06-22T04:42:53;20.60;99.90
47540;DHT22;33280;52.152;21.052;2023-06-22T04:45:21;20.60;99.90
47540;DHT22;33280;52.152;21.052;2023-06-22T04:47:48;20.80;99.90
47540;DHT22;33280;52.152;21.052;2023-06-22T04:50:15;20.90;99.90
47540;DHT22;33280;52.152;21.052;2023-06-22T04:52:44;21.10;99.90
47540;DHT22;33280;52.152;21.052;2023-06-22T04:55:13;21.10;99.90
47540;DHT22;33280;52.152;21.052;2023-06-22T04:57:48;21.00;99.90
47540;DHT22;33280;52.152;21.052;2023-06-22T05:00:19;21.00;99.90
47540;DHT22;33280;52.152;21.052;2023-06-22T05:02:46;21.10;99.90
47540;DHT22;33280;52.152;21.052;2023-06-22T05:05:14;21.20;99.90
47540;DHT22;33280;52.152;21.052;2023-06-22T05:07:46;21.00;99.90
47540;DHT22;33280;52.152;21.052;2023-06-22T05:10:15;21.00;99.90
47540;DHT22;33280;52.152;21.052;2023-06-22T05:12:42;21.00;99.90
47540;DHT22;33280;52.152;21.052;2023-06-22T05:15:09;21.00;99.90
47540;DHT22;33280;52.152;21.052;2023-06-22T05:17:37;21.10;99.90
47540;DHT22;33280;52.152;21.052;2023-06-22T05:20:11;21.00;99.90
47540;DHT22;33280;52.152;21.052;2023-06-22T05:22:39;21.10;99.90
47540;DHT22;33280;52.152;21.052;2023-06-22T05:25:09;21.20;99.90
47540;DHT22;33280;52.152;21.052;2023-06-22T05:27:36;21.20;99.90
47540;DHT22;33280;52.152;21.052;2023-06-22T05:30:07;21.40;99.90
47540;DHT22;33280;52.152;21.052;2023-06-22T05:32:35;21.30;99.90
47540;DHT22;33280;52.152;21.052;2023-06-22T05:35:05;21.10;99.90
47540;DHT22;33280;52.152;21.052;2023-06-22T05:37:32;21.20;99.90
47540;DHT22;33280;52.152;21.052;2023-06-22T05:39:59;21.40;99.90
47540;DHT22;33280;52.152;21.052;2023-06-22T05:42:27;21.60;99.90
47540;DHT22;33280;52.152;21.052;2023-06-22T05:44:54;21.40;99.90
47540;DHT22;33280;52.152;21.052;2023-06-22T05:47:21;21.30;99.90
47540;DHT22;33280;52.152;21.052;2023-06-22T05:49:49;21.40;99.90
47540;DHT22;33280;52.152;21.052;2023-06-22T05:52:16;21.50;99.90
47540;DHT22;33280;52.152;21.052;2023-06-22T05:54:44;21.70;99.90
47540;DHT22;33280;52.152;21.052;2023-06-22T05:57:11;21.80;99.90
47540;DHT22;33280;52.152;21.052;2023-06-22T05:59:38;21.70;99.90
47540;DHT22;33280;52.152;21.052;2023-06-22T06:02:05;21.60;99.90
47540;DHT22;33280;52.152;21.052;2023-06-22T06:04:32;21.60;99.90
47540;DHT22;33280;52.152;21.052;2023-06-22T06:06:59;21.80;99.90
47540;DHT22;33280;52.152;21.052;2023-06-22T06:09:28;21.70;99.90
47540;DHT22;33280;52.152;21.052;2023-06-22T06:11:55;21.70;99.90
47540;DHT22;33280;52.152;21.052;2023-06-22T06:14:22;21.80;99.90
47540;DHT22;33280;52.152;21.052;2023-06-22T06:16:49;22.00;99.90
47540;DHT22;33280;52.152;21.052;2023-06-22T06:19:17;21.80;99.90
47540;DHT22;33280;52.152;21.052;2023-06-22T06:21:43;21.70;99.90
47540;DHT22;33280;52.152;21.052;2023-06-22T06:24:11;21.90;99.90
47540;DHT22;33280;52.152;21.052;2023-06-22T06:26:38;21.90;99.90
47540;DHT22;33280;52.152;21.052;2023-06-22T06:29:09;22.00;99.90
47540;DHT22;33280;52.152;21.052;2023-06-22T06:31:36;22.00;99.90
47540;DHT22;33280;52.152;21.052;2023-06-22T06:34:03;21.90;99.90
47540;DHT22;33280;52.152;21.052;2023-06-22T06:36:33;22.00;99.90
47540;DHT22;33280;52.152;21.052;2023-06-22T06:39:00;22.10;99.90
47540;DHT22;33280;52.152;21.052;2023-06-22T06:41:27;22.00;99.90
47540;DHT22;33280;52.152;21.052;2023-06-22T06:43:54;22.10;99.90
47540;DHT22;33280;52.152;21.052;2023-06-22T06:46:21;22.10;99.90
47540;DHT22;33280;52.152;21.052;2023-06-22T06:48:48;22.10;99.90
47540;DHT22;33280;52.152;21.052;2023-06-22T06:51:15;22.20;99.90
47540;DHT22;33280;52.152;21.052;2023-06-22T06:53:42;22.30;99.90
47540;DHT22;33280;52.152;21.052;2023-06-22T06:56:09;22.60;99.90
47540;DHT22;33280;52.152;21.052;2023-06-22T06:58:42;22.40;99.90
47540;DHT22;33280;52.152;21.052;2023-06-22T07:01:09;22.50;99.90
47540;DHT22;33280;52.152;21.052;2023-06-22T07:03:36;22.70;99.90
47540;DHT22;33280;52.152;21.052;2023-06-22T07:06:03;22.80;99.90
47540;DHT22;33280;52.152;21.052;2023-06-22T07:08:30;23.10;99.90
47540;DHT22;33280;52.152;21.052;2023-06-22T07:10:57;23.20;99.90
47540;DHT22;33280;52.152;21.052;2023-06-22T07:13:24;23.30;99.90
47540;DHT22;33280;52.152;21.052;2023-06-22T07:15:51;23.30;99.90
47540;DHT22;33280;52.152;21.052;2023-06-22T07:18:18;23.60;99.90
47540;DHT22;33280;52.152;21.052;2023-06-22T07:20:45;23.60;99.90
47540;DHT22;33280;52.152;21.052;2023-06-22T07:23:12;23.60;99.90
47540;DHT22;33280;52.152;21.052;2023-06-22T07:25:39;23.60;99.90
47540;DHT22;33280;52.152;21.052;2023-06-22T07:28:07;23.90;99.90
47540;DHT22;33280;52.152;21.052;2023-06-22T07:30:34;24.00;99.90
47540;DHT22;33280;52.152;21.052;2023-06-22T07:33:02;24.10;99.90
47540;DHT22;33280;52.152;21.052;2023-06-22T07:35:31;23.80;99.90
47540;DHT22;33280;52.152;21.052;2023-06-22T07:37:58;23.90;99.90
47540;DHT22;33280;52.152;21.052;2023-06-22T07:40:30;24.00;99.90
47540;DHT22;33280;52.152;21.052;2023-06-22T07:42:58;24.10;99.90
47540;DHT22;33280;52.152;21.052;2023-06-22T07:45:25;24.50;99.90
47540;DHT22;33280;52.152;21.052;2023-06-22T07:47:52;24.50;99.90
47540;DHT22;33280;52.152;21.052;2023-06-22T07:50:19;24.40;99.90
47540;DHT22;33280;52.152;21.052;2023-06-22T07:52:46;24.40;99.90
47540;DHT22;33280;52.152;21.052;2023-06-22T07:55:14;24.50;99.90
47540;DHT22;33280;52.152;21.052;2023-06-22T07:57:41;24.80;99.90
47540;DHT22;33280;52.152;21.052;2023-06-22T08:00:09;24.80;99.90
47540;DHT22;33280;52.152;21.052;2023-06-22T08:02:45;24.80;99.90
47540;DHT22;33280;52.152;21.052;2023-06-22T08:05:14;25.00;99.90
47540;DHT22;33280;52.152;21.052;2023-06-22T08:07:49;24.80;99.90
47540;DHT22;33280;52.152;21.052;2023-06-22T08:10:16;24.90;99.90
47540;DHT22;33280;52.152;21.052;2023-06-22T08:12:43;24.70;99.90
47540;DHT22;33280;52.152;21.052;2023-06-22T08:15:10;24.80;99.90
47540;DHT22;33280;52.152;21.052;2023-06-22T08:17:38;24.70;99.90
47540;DHT22;33280;52.152;21.052;2023-06-22T08:20:07;24.80;99.90
47540;DHT22;33280;52.152;21.052;2023-06-22T08:22:41;24.60;99.90
47540;DHT22;33280;52.152;21.052;2023-06-22T08:25:09;24.70;99.90
47540;DHT22;33280;52.152;21.052;2023-06-22T08:27:37;25.20;99.90
47540;DHT22;33280;52.152;21.052;2023-06-22T08:30:04;26.00;99.90
47540;DHT22;33280;52.152;21.052;2023-06-22T08:32:31;26.20;99.90
47540;DHT22;33280;52.152;21.052;2023-06-22T08:35:01;26.50;99.90
47540;DHT22;33280;52.152;21.052;2023-06-22T08:37:28;26.80;99.90
47540;DHT22;33280;52.152;21.052;2023-06-22T08:40:03;27.40;99.90
47540;DHT22;33280;52.152;21.052;2023-06-22T08:42:36;28.10;99.90
47540;DHT22;33280;52.152;21.052;2023-06-22T08:45:03;28.70;99.90
47540;DHT22;33280;52.152;21.052;2023-06-22T08:47:31;28.50;99.90
47540;DHT22;33280;52.152;21.052;2023-06-22T08:49:58;28.50;99.90
47540;DHT22;33280;52.152;21.052;2023-06-22T08:52:25;28.50;99.90
47540;DHT22;33280;52.152;21.052;2023-06-22T08:54:52;28.80;99.90
47540;DHT22;33280;52.152;21.052;2023-06-22T08:57:21;29.00;99.90
47540;DHT22;33280;52.152;21.052;2023-06-22T08:59:48;29.30;99.90
47540;DHT22;33280;52.152;21.052;2023-06-22T09:02:15;29.80;99.90
47540;DHT22;33280;52.152;21.052;2023-06-22T09:04:42;29.80;99.90
47540;DHT22;33280;52.152;21.052;2023-06-22T09:07:09;29.90;99.90
47540;DHT22;33280;52.152;21.052;2023-06-22T09:09:36;29.60;99.90
47540;DHT22;33280;52.152;21.052;2023-06-22T09:12:03;29.70;99.90
47540;DHT22;33280;52.152;21.052;2023-06-22T09:14:31;29.40;99.90
47540;DHT22;33280;52.152;21.052;2023-06-22T09:16:58;29.70;99.90
47540;DHT22;33280;52.152;21.052;2023-06-22T09:19:25;30.00;99.90
47540;DHT22;33280;52.152;21.052;2023-06-22T09:21:52;29.90;99.90
47540;DHT22;33280;52.152;21.052;2023-06-22T09:24:19;28.80;99.90
47540;DHT22;33280;52.152;21.052;2023-06-22T09:26:46;28.90;99.90
47540;DHT22;33280;52.152;21.052;2023-06-22T09:29:13;28.70;99.90
47540;DHT22;33280;52.152;21.052;2023-06-22T09:31:40;28.90;99.90
47540;DHT22;33280;52.152;21.052;2023-06-22T09:34:07;29.50;99.90
47540;DHT22;33280;52.152;21.052;2023-06-22T09:36:34;29.30;99.90
47540;DHT22;33280;52.152;21.052;2023-06-22T09:39:02;29.00;99.90
47540;DHT22;33280;52.152;21.052;2023-06-22T09:41:32;28.60;99.90
47540;DHT22;33280;52.152;21.052;2023-06-22T09:43:59;29.20;99.90
47540;DHT22;33280;52.152;21.052;2023-06-22T09:46:26;29.80;99.90
47540;DHT22;33280;52.152;21.052;2023-06-22T09:48:54;30.30;99.90
47540;DHT22;33280;52.152;21.052;2023-06-22T09:51:22;30.00;99.90
47540;DHT22;33280;52.152;21.052;2023-06-22T09:53:51;30.50;99.90
47540;DHT22;33280;52.152;21.052;2023-06-22T09:56:19;30.90;99.90
47540;DHT22;33280;52.152;21.052;2023-06-22T09:58:46;30.90;99.90
47540;DHT22;33280;52.152;21.052;2023-06-22T10:01:14;30.80;99.90
47540;DHT22;33280;52.152;21.052;2023-06-22T10:03:43;31.10;99.90
47540;DHT22;33280;52.152;21.052;2023-06-22T10:06:11;31.40;99.90
47540;DHT22;33280;52.152;21.052;2023-06-22T10:08:38;31.70;99.90
47540;DHT22;33280;52.152;21.052;2023-06-22T10:11:06;31.60;99.90
47540;DHT22;33280;52.152;21.052;2023-06-22T10:13:33;31.70;99.90
47540;DHT22;33280;52.152;21.052;2023-06-22T10:16:00;32.30;98.90
47540;DHT22;33280;52.152;21.052;2023-06-22T10:18:27;31.90;98.40
47540;DHT22;33280;52.152;21.052;2023-06-22T10:20:54;32.30;98.60
47540;DHT22;33280;52.152;21.052;2023-06-22T10:23:21;32.30;97.80
47540;DHT22;33280;52.152;21.052;2023-06-22T10:25:49;32.00;96.20
47540;DHT22;33280;52.152;21.052;2023-06-22T10:28:16;31.50;97.70
47540;DHT22;33280;52.152;21.052;2023-06-22T10:30:43;31.60;96.60
47540;DHT22;33280;52.152;21.052;2023-06-22T10:33:12;31.90;98.10
47540;DHT22;33280;52.152;21.052;2023-06-22T10:35:39;32.00;96.00
47540;DHT22;33280;52.152;21.052;2023-06-22T10:38:09;32.20;96.90
47540;DHT22;33280;52.152;21.052;2023-06-22T10:40:36;33.00;96.30
47540;DHT22;33280;52.152;21.052;2023-06-22T10:43:03;32.50;95.00
47540;DHT22;33280;52.152;21.052;2023-06-22T10:45:30;32.90;94.70
47540;DHT22;33280;52.152;21.052;2023-06-22T10:47:57;32.60;94.50
47540;DHT22;33280;52.152;21.052;2023-06-22T10:50:25;32.90;94.80
47540;DHT22;33280;52.152;21.052;2023-06-22T10:52:53;33.20;94.30
47540;DHT22;33280;52.152;21.052;2023-06-22T10:55:22;32.80;95.20
47540;DHT22;33280;52.152;21.052;2023-06-22T10:57:49;33.30;94.80
47540;DHT22;33280;52.152;21.052;2023-06-22T11:00:16;33.70;94.20
47540;DHT22;33280;52.152;21.052;2023-06-22T11:02:43;33.90;92.90
47540;DHT22;33280;52.152;21.052;2023-06-22T11:05:11;34.20;93.00
47540;DHT22;33280;52.152;21.052;2023-06-22T11:07:42;34.60;93.70
47540;DHT22;33280;52.152;21.052;2023-06-22T11:10:11;34.50;90.40
47540;DHT22;33280;52.152;21.052;2023-06-22T11:12:38;33.40;90.60
47540;DHT22;33280;52.152;21.052;2023-06-22T11:15:06;33.00;92.10
47540;DHT22;33280;52.152;21.052;2023-06-22T11:17:33;33.00;91.20
47540;DHT22;33280;52.152;21.052;2023-06-22T11:20:01;33.50;91.10
47540;DHT22;33280;52.152;21.052;2023-06-22T11:22:28;34.00;92.70
47540;DHT22;33280;52.152;21.052;2023-06-22T11:24:56;34.60;88.50
47540;DHT22;33280;52.152;21.052;2023-06-22T11:27:24;34.90;85.90
47540;DHT22;33280;52.152;21.052;2023-06-22T11:29:51;34.30;86.30
47540;DHT22;33280;52.152;21.052;2023-06-22T11:32:19;34.00;86.50
47540;DHT22;33280;52.152;21.052;2023-06-22T11:34:46;34.90;85.50
47540;DHT22;33280;52.152;21.052;2023-06-22T11:37:13;35.10;82.70
47540;DHT22;33280;52.152;21.052;2023-06-22T11:39:41;35.10;83.40
47540;DHT22;33280;52.152;21.052;2023-06-22T11:42:19;34.90;83.90
47540;DHT22;33280;52.152;21.052;2023-06-22T11:44:46;35.10;81.90
47540;DHT22;33280;52.152;21.052;2023-06-22T11:47:13;35.10;81.70
47540;DHT22;33280;52.152;21.052;2023-06-22T11:49:41;35.50;81.40
47540;DHT22;33280;52.152;21.052;2023-06-22T11:52:08;34.90;81.20
47540;DHT22;33280;52.152;21.052;2023-06-22T11:54:35;34.50;81.20
47540;DHT22;33280;52.152;21.052;2023-06-22T11:57:02;34.50;80.70
47540;DHT22;33280;52.152;21.052;2023-06-22T11:59:29;35.40;79.80
47540;DHT22;33280;52.152;21.052;2023-06-22T12:01:57;35.50;78.20
47540;DHT22;33280;52.152;21.052;2023-06-22T12:04:25;35.30;78.90
47540;DHT22;33280;52.152;21.052;2023-06-22T12:06:52;35.60;79.00
47540;DHT22;33280;52.152;21.052;2023-06-22T12:09:19;36.20;76.00
47540;DHT22;33280;52.152;21.052;2023-06-22T12:11:45;36.50;73.10
47540;DHT22;33280;52.152;21.052;2023-06-22T12:14:12;36.00;70.80
47540;DHT22;33280;52.152;21.052;2023-06-22T12:16:39;36.30;72.00
47540;DHT22;33280;52.152;21.052;2023-06-22T12:19:07;35.50;74.20
47540;DHT22;33280;52.152;21.052;2023-06-22T12:21:34;35.10;74.40
47540;DHT22;33280;52.152;21.052;2023-06-22T12:24:00;34.80;76.60
47540;DHT22;33280;52.152;21.052;2023-06-22T12:26:27;34.70;76.30
47540;DHT22;33280;52.152;21.052;2023-06-22T12:28:55;35.20;75.00
47540;DHT22;33280;52.152;21.052;2023-06-22T12:31:21;35.80;74.70
47540;DHT22;33280;52.152;21.052;2023-06-22T12:33:48;36.10;74.50
47540;DHT22;33280;52.152;21.052;2023-06-22T12:36:15;35.90;72.70
47540;DHT22;33280;52.152;21.052;2023-06-22T12:38:43;36.00;68.60
47540;DHT22;33280;52.152;21.052;2023-06-22T12:41:10;35.50;71.20
47540;DHT22;33280;52.152;21.052;2023-06-22T12:43:37;35.70;70.00
47540;DHT22;33280;52.152;21.052;2023-06-22T12:46:04;35.80;70.70
47540;DHT22;33280;52.152;21.052;2023-06-22T12:48:31;36.70;71.70
47540;DHT22;33280;52.152;21.052;2023-06-22T12:50:58;37.10;69.10
47540;DHT22;33280;52.152;21.052;2023-06-22T12:53:25;36.90;67.30
47540;DHT22;33280;52.152;21.052;2023-06-22T12:55:54;37.40;67.00
47540;DHT22;33280;52.152;21.052;2023-06-22T12:58:20;37.70;66.00
47540;DHT22;33280;52.152;21.052;2023-06-22T13:00:48;37.90;64.70
47540;DHT22;33280;52.152;21.052;2023-06-22T13:03:15;37.90;65.40
47540;DHT22;33280;52.152;21.052;2023-06-22T13:05:42;38.20;66.20
47540;DHT22;33280;52.152;21.052;2023-06-22T13:08:09;36.40;63.60
47540;DHT22;33280;52.152;21.052;2023-06-22T13:10:38;35.70;67.70
47540;DHT22;33280;52.152;21.052;2023-06-22T13:13:06;34.90;66.50
47540;DHT22;33280;52.152;21.052;2023-06-22T13:15:33;35.20;69.10
47540;DHT22;33280;52.152;21.052;2023-06-22T13:18:00;36.30;66.60
47540;DHT22;33280;52.152;21.052;2023-06-22T13:20:28;36.50;65.40
47540;DHT22;33280;52.152;21.052;2023-06-22T13:22:55;37.00;64.80
47540;DHT22;33280;52.152;21.052;2023-06-22T13:25:23;36.50;64.40
47540;DHT22;33280;52.152;21.052;2023-06-22T13:27:53;36.20;65.20
47540;DHT22;33280;52.152;21.052;2023-06-22T13:30:20;35.40;64.80
47540;DHT22;33280;52.152;21.052;2023-06-22T13:32:47;35.20;65.20
47540;DHT22;33280;52.152;21.052;2023-06-22T13:35:14;35.10;66.30
47540;DHT22;33280;52.152;21.052;2023-06-22T13:37:44;35.10;66.80
47540;DHT22;33280;52.152;21.052;2023-06-22T13:40:12;35.50;66.20
47540;DHT22;33280;52.152;21.052;2023-06-22T13:42:39;36.40;66.20
47540;DHT22;33280;52.152;21.052;2023-06-22T13:45:07;35.40;63.70
47540;DHT22;33280;52.152;21.052;2023-06-22T13:47:34;35.40;65.50
47540;DHT22;33280;52.152;21.052;2023-06-22T13:50:01;34.70;65.20
47540;DHT22;33280;52.152;21.052;2023-06-22T13:52:28;35.10;65.10
47540;DHT22;33280;52.152;21.052;2023-06-22T13:54:55;35.90;64.70
47540;DHT22;33280;52.152;21.052;2023-06-22T13:57:22;36.60;63.00
47540;DHT22;33280;52.152;21.052;2023-06-22T13:59:49;36.30;62.70
47540;DHT22;33280;52.152;21.052;2023-06-22T14:02:17;37.20;62.60
47540;DHT22;33280;52.152;21.052;2023-06-22T14:04:44;37.80;60.30
47540;DHT22;33280;52.152;21.052;2023-06-22T14:07:11;37.80;58.10
47540;DHT22;33280;52.152;21.052;2023-06-22T14:09:39;37.00;59.40
47540;DHT22;33280;52.152;21.052;2023-06-22T14:12:07;36.80;58.80
47540;DHT22;33280;52.152;21.052;2023-06-22T14:14:34;36.80;59.30
47540;DHT22;33280;52.152;21.052;2023-06-22T14:17:01;36.70;60.00
47540;DHT22;33280;52.152;21.052;2023-06-22T14:19:29;37.10;61.70
47540;DHT22;33280;52.152;21.052;2023-06-22T14:21:56;37.40;59.70
47540;DHT22;33280;52.152;21.052;2023-06-22T14:24:23;37.80;58.30
47540;DHT22;33280;52.152;21.052;2023-06-22T14:26:55;38.00;58.20
47540;DHT22;33280;52.152;21.052;2023-06-22T14:29:22;38.70;58.00
47540;DHT22;33280;52.152;21.052;2023-06-22T14:31:49;38.70;57.90
47540;DHT22;33280;52.152;21.052;2023-06-22T14:34:16;38.80;57.10
47540;DHT22;33280;52.152;21.052;2023-06-22T14:36:43;38.90;57.60
47540;DHT22;33280;52.152;21.052;2023-06-22T14:39:10;38.20;56.60
47540;DHT22;33280;52.152;21.052;2023-06-22T14:41:37;37.50;57.20
47540;DHT22;33280;52.152;21.052;2023-06-22T14:44:04;36.90;58.20
47540;DHT22;33280;52.152;21.052;2023-06-22T14:46:31;36.20;59.40
47540;DHT22;33280;52.152;21.052;2023-06-22T14:48:59;36.00;60.00
47540;DHT22;33280;52.152;21.052;2023-06-22T14:51:27;36.10;59.70
47540;DHT22;33280;52.152;21.052;2023-06-22T14:53:54;35.80;60.40
47540;DHT22;33280;52.152;21.052;2023-06-22T14:56:21;36.10;60.10
47540;DHT22;33280;52.152;21.052;2023-06-22T14:58:48;36.20;60.20
47540;DHT22;33280;52.152;21.052;2023-06-22T15:01:18;36.70;59.40
47540;DHT22;33280;52.152;21.052;2023-06-22T15:03:45;37.30;58.60
47540;DHT22;33280;52.152;21.052;2023-06-22T15:06:12;37.20;57.60
47540;DHT22;33280;52.152;21.052;2023-06-22T15:08:40;37.00;58.20
47540;DHT22;33280;52.152;21.052;2023-06-22T15:11:08;36.60;59.40
47540;DHT22;33280;52.152;21.052;2023-06-22T15:13:38;36.60;59.40
47540;DHT22;33280;52.152;21.052;2023-06-22T15:16:05;36.20;58.90
47540;DHT22;33280;52.152;21.052;2023-06-22T15:18:33;36.40;59.30